Terminal Aerodrome Forecast
Issued by NWS

Home | Current Version | Previous Version | Graphics & Text | Print | Product List | Glossary On
Versions: 1 2 3 4 5 6 7 8 9 10 11 12 13 14 15 16 17 18 19 20 21 22 23 24 25 26 27 28 29 30
000
FTUS45 KGGW 231725
TAFGDV
TAF
KGDV 231725Z 2318/2418 10014KT P6SM BKN008
     FM231900 10016KT P6SM OVC025
     FM240600 06009KT 6SM SHRA OVC009
     FM241300 01006KT P6SM OVC018=

USA.gov is the U.S. government's official web portal to all federal, state and local government web resources and services.